sensor_id;sensor_type;location;lat;lon;timestamp;P1;durP1;ratioP1;P2;durP2;ratioP2
10122;SDS011;5101;49.038;8.710;2024-01-10T00:01:16;15.43;;;9.57;;
10122;SDS011;5101;49.038;8.710;2024-01-10T00:03:42;17.07;;;9.23;;
10122;SDS011;5101;49.038;8.710;2024-01-10T00:06:08;15.57;;;9.10;;
10122;SDS011;5101;49.038;8.710;2024-01-10T00:08:33;16.53;;;8.70;;
10122;SDS011;5101;49.038;8.710;2024-01-10T00:10:59;13.87;;;8.57;;
10122;SDS011;5101;49.038;8.710;2024-01-10T00:13:24;16.30;;;8.53;;
10122;SDS011;5101;49.038;8.710;2024-01-10T00:15:51;14.87;;;8.97;;
10122;SDS011;5101;49.038;8.710;2024-01-10T00:18:16;13.37;;;8.17;;
10122;SDS011;5101;49.038;8.710;2024-01-10T00:20:42;14.20;;;8.03;;
10122;SDS011;5101;49.038;8.710;2024-01-10T00:23:07;12.97;;;7.83;;
10122;SDS011;5101;49.038;8.710;2024-01-10T00:25:33;13.50;;;7.53;;
10122;SDS011;5101;49.038;8.710;2024-01-10T00:27:58;14.97;;;7.83;;
10122;SDS011;5101;49.038;8.710;2024-01-10T00:30:25;12.63;;;8.23;;
10122;SDS011;5101;49.038;8.710;2024-01-10T00:32:50;12.93;;;7.80;;
10122;SDS011;5101;49.038;8.710;2024-01-10T00:35:16;15.17;;;8.47;;
10122;SDS011;5101;49.038;8.710;2024-01-10T00:37:42;14.73;;;7.80;;
10122;SDS011;5101;49.038;8.710;2024-01-10T00:40:07;12.90;;;7.63;;
10122;SDS011;5101;49.038;8.710;2024-01-10T00:42:34;13.77;;;7.77;;
10122;SDS011;5101;49.038;8.710;2024-01-10T00:44:59;15.40;;;8.33;;
10122;SDS011;5101;49.038;8.710;2024-01-10T00:47:25;14.80;;;7.77;;
10122;SDS011;5101;49.038;8.710;2024-01-10T00:49:50;13.53;;;8.17;;
10122;SDS011;5101;49.038;8.710;2024-01-10T00:52:16;13.70;;;8.07;;
10122;SDS011;5101;49.038;8.710;2024-01-10T00:54:41;11.23;;;7.33;;
10122;SDS011;5101;49.038;8.710;2024-01-10T00:57:09;14.00;;;7.33;;
10122;SDS011;5101;49.038;8.710;2024-01-10T00:59:34;10.97;;;7.17;;
10122;SDS011;5101;49.038;8.710;2024-01-10T01:02:00;12.53;;;7.50;;
10122;SDS011;5101;49.038;8.710;2024-01-10T01:04:25;12.70;;;7.60;;
10122;SDS011;5101;49.038;8.710;2024-01-10T01:06:51;12.57;;;7.93;;
10122;SDS011;5101;49.038;8.710;2024-01-10T01:09:16;13.20;;;7.93;;
10122;SDS011;5101;49.038;8.710;2024-01-10T01:11:42;14.30;;;8.57;;
10122;SDS011;5101;49.038;8.710;2024-01-10T01:14:08;12.83;;;8.90;;
10122;SDS011;5101;49.038;8.710;2024-01-10T01:16:33;13.30;;;7.97;;
10122;SDS011;5101;49.038;8.710;2024-01-10T01:18:59;15.40;;;9.70;;
10122;SDS011;5101;49.038;8.710;2024-01-10T01:21:24;14.27;;;8.40;;
10122;SDS011;5101;49.038;8.710;2024-01-10T01:23:50;13.63;;;8.17;;
10122;SDS011;5101;49.038;8.710;2024-01-10T01:26:16;15.40;;;8.63;;
10122;SDS011;5101;49.038;8.710;2024-01-10T01:28:41;16.17;;;8.73;;
10122;SDS011;5101;49.038;8.710;2024-01-10T01:31:07;14.73;;;8.50;;
10122;SDS011;5101;49.038;8.710;2024-01-10T01:33:32;14.97;;;8.33;;
10122;SDS011;5101;49.038;8.710;2024-01-10T01:35:58;13.63;;;8.50;;
10122;SDS011;5101;49.038;8.710;2024-01-10T01:38:23;14.83;;;8.27;;
10122;SDS011;5101;49.038;8.710;2024-01-10T01:40:49;14.27;;;8.77;;
10122;SDS011;5101;49.038;8.710;2024-01-10T01:43:21;14.87;;;10.37;;
10122;SDS011;5101;49.038;8.710;2024-01-10T01:45:50;14.27;;;8.17;;
10122;SDS011;5101;49.038;8.710;2024-01-10T01:48:17;16.00;;;9.00;;
10122;SDS011;5101;49.038;8.710;2024-01-10T01:50:44;14.23;;;8.77;;
10122;SDS011;5101;49.038;8.710;2024-01-10T01:53:10;14.63;;;8.30;;
10122;SDS011;5101;49.038;8.710;2024-01-10T01:55:37;16.58;;;11.10;;
10122;SDS011;5101;49.038;8.710;2024-01-10T01:58:03;16.40;;;12.47;;
10122;SDS011;5101;49.038;8.710;2024-01-10T02:00:29;15.63;;;12.00;;
10122;SDS011;5101;49.038;8.710;2024-01-10T02:02:55;14.80;;;9.27;;
10122;SDS011;5101;49.038;8.710;2024-01-10T02:05:23;16.02;;;10.43;;
10122;SDS011;5101;49.038;8.710;2024-01-10T02:07:50;15.50;;;9.57;;
10122;SDS011;5101;49.038;8.710;2024-01-10T02:10:15;13.73;;;8.57;;
10122;SDS011;5101;49.038;8.710;2024-01-10T02:12:41;15.20;;;9.57;;
10122;SDS011;5101;49.038;8.710;2024-01-10T02:15:06;16.03;;;8.60;;
10122;SDS011;5101;49.038;8.710;2024-01-10T02:17:32;15.53;;;8.23;;
10122;SDS011;5101;49.038;8.710;2024-01-10T02:20:10;17.70;;;9.60;;
10122;SDS011;5101;49.038;8.710;2024-01-10T02:22:42;14.47;;;8.77;;
10122;SDS011;5101;49.038;8.710;2024-01-10T02:25:10;14.90;;;8.75;;
10122;SDS011;5101;49.038;8.710;2024-01-10T02:30:03;17.47;;;9.60;;
10122;SDS011;5101;49.038;8.710;2024-01-10T02:32:30;16.20;;;9.17;;
10122;SDS011;5101;49.038;8.710;2024-01-10T02:34:55;13.17;;;8.23;;
10122;SDS011;5101;49.038;8.710;2024-01-10T02:37:21;16.33;;;8.67;;
10122;SDS011;5101;49.038;8.710;2024-01-10T02:39:46;12.80;;;8.03;;
10122;SDS011;5101;49.038;8.710;2024-01-10T02:42:12;16.90;;;7.97;;
10122;SDS011;5101;49.038;8.710;2024-01-10T02:44:37;15.93;;;9.40;;
10122;SDS011;5101;49.038;8.710;2024-01-10T02:47:03;14.67;;;9.10;;
10122;SDS011;5101;49.038;8.710;2024-01-10T02:49:29;15.18;;;11.48;;
10122;SDS011;5101;49.038;8.710;2024-01-10T02:51:54;15.30;;;9.50;;
10122;SDS011;5101;49.038;8.710;2024-01-10T02:54:20;17.53;;;9.50;;
10122;SDS011;5101;49.038;8.710;2024-01-10T02:56:45;19.17;;;10.20;;
10122;SDS011;5101;49.038;8.710;2024-01-10T02:59:11;14.53;;;8.03;;
10122;SDS011;5101;49.038;8.710;2024-01-10T03:01:36;16.23;;;12.00;;
10122;SDS011;5101;49.038;8.710;2024-01-10T03:04:02;14.27;;;9.70;;
10122;SDS011;5101;49.038;8.710;2024-01-10T03:06:28;15.47;;;8.70;;
10122;SDS011;5101;49.038;8.710;2024-01-10T03:08:54;14.50;;;8.90;;
10122;SDS011;5101;49.038;8.710;2024-01-10T03:11:19;14.50;;;9.10;;
10122;SDS011;5101;49.038;8.710;2024-01-10T03:13:45;15.37;;;8.87;;
10122;SDS011;5101;49.038;8.710;2024-01-10T03:16:11;14.67;;;8.13;;
10122;SDS011;5101;49.038;8.710;2024-01-10T03:18:37;16.50;;;11.00;;
10122;SDS011;5101;49.038;8.710;2024-01-10T03:21:03;16.97;;;9.07;;
10122;SDS011;5101;49.038;8.710;2024-01-10T03:23:28;17.00;;;9.90;;
10122;SDS011;5101;49.038;8.710;2024-01-10T03:25:55;13.33;;;8.37;;
10122;SDS011;5101;49.038;8.710;2024-01-10T03:28:21;16.40;;;9.23;;
10122;SDS011;5101;49.038;8.710;2024-01-10T03:30:46;17.10;;;9.40;;
10122;SDS011;5101;49.038;8.710;2024-01-10T03:33:12;14.80;;;8.43;;
10122;SDS011;5101;49.038;8.710;2024-01-10T03:35:37;13.33;;;8.97;;
10122;SDS011;5101;49.038;8.710;2024-01-10T03:38:03;16.57;;;9.77;;
10122;SDS011;5101;49.038;8.710;2024-01-10T03:40:29;15.47;;;9.03;;
10122;SDS011;5101;49.038;8.710;2024-01-10T03:42:54;15.87;;;9.60;;
10122;SDS011;5101;49.038;8.710;2024-01-10T03:45:20;15.83;;;9.17;;
10122;SDS011;5101;49.038;8.710;2024-01-10T03:47:48;16.00;;;9.30;;
10122;SDS011;5101;49.038;8.710;2024-01-10T03:50:16;16.97;;;10.03;;
10122;SDS011;5101;49.038;8.710;2024-01-10T03:52:43;14.77;;;9.13;;
10122;SDS011;5101;49.038;8.710;2024-01-10T03:55:09;15.33;;;9.40;;
10122;SDS011;5101;49.038;8.710;2024-01-10T03:57:34;16.17;;;9.60;;
10122;SDS011;5101;49.038;8.710;2024-01-10T04:00:00;16.83;;;9.77;;
10122;SDS011;5101;49.038;8.710;2024-01-10T04:02:25;17.63;;;9.77;;
10122;SDS011;5101;49.038;8.710;2024-01-10T04:04:52;14.53;;;8.63;;
10122;SDS011;5101;49.038;8.710;2024-01-10T04:07:18;15.97;;;9.07;;
10122;SDS011;5101;49.038;8.710;2024-01-10T04:09:44;14.23;;;8.67;;
10122;SDS011;5101;49.038;8.710;2024-01-10T04:12:09;17.17;;;9.53;;
10122;SDS011;5101;49.038;8.710;2024-01-10T04:14:35;17.43;;;10.30;;
10122;SDS011;5101;49.038;8.710;2024-01-10T04:17:01;16.33;;;9.67;;
10122;SDS011;5101;49.038;8.710;2024-01-10T04:19:26;20.30;;;9.50;;
10122;SDS011;5101;49.038;8.710;2024-01-10T04:21:52;17.10;;;9.97;;
10122;SDS011;5101;49.038;8.710;2024-01-10T04:24:17;16.47;;;9.77;;
10122;SDS011;5101;49.038;8.710;2024-01-10T04:26:43;14.97;;;9.80;;
10122;SDS011;5101;49.038;8.710;2024-01-10T04:29:09;15.40;;;9.67;;
10122;SDS011;5101;49.038;8.710;2024-01-10T04:31:34;17.27;;;10.60;;
10122;SDS011;5101;49.038;8.710;2024-01-10T04:34:00;17.00;;;9.70;;
10122;SDS011;5101;49.038;8.710;2024-01-10T04:36:26;16.53;;;9.93;;
10122;SDS011;5101;49.038;8.710;2024-01-10T04:38:52;15.53;;;9.50;;
10122;SDS011;5101;49.038;8.710;2024-01-10T04:41:18;17.23;;;9.33;;
10122;SDS011;5101;49.038;8.710;2024-01-10T04:43:44;16.83;;;10.47;;
10122;SDS011;5101;49.038;8.710;2024-01-10T04:46:09;16.87;;;10.27;;
10122;SDS011;5101;49.038;8.710;2024-01-10T04:48:35;19.60;;;10.73;;
10122;SDS011;5101;49.038;8.710;2024-01-10T04:51:01;18.77;;;10.50;;
10122;SDS011;5101;49.038;8.710;2024-01-10T04:53:27;20.00;;;11.27;;
10122;SDS011;5101;49.038;8.710;2024-01-10T04:55:52;18.10;;;10.43;;
10122;SDS011;5101;49.038;8.710;2024-01-10T04:58:18;16.93;;;9.73;;
10122;SDS011;5101;49.038;8.710;2024-01-10T05:00:43;16.93;;;10.27;;
10122;SDS011;5101;49.038;8.710;2024-01-10T05:03:09;17.83;;;10.13;;
10122;SDS011;5101;49.038;8.710;2024-01-10T05:05:34;18.60;;;10.00;;
10122;SDS011;5101;49.038;8.710;2024-01-10T05:07:59;17.87;;;10.57;;
10122;SDS011;5101;49.038;8.710;2024-01-10T05:10:26;16.67;;;10.60;;
10122;SDS011;5101;49.038;8.710;2024-01-10T05:12:52;15.80;;;9.30;;
10122;SDS011;5101;49.038;8.710;2024-01-10T05:15:17;16.17;;;10.30;;
10122;SDS011;5101;49.038;8.710;2024-01-10T05:17:43;17.13;;;9.87;;
10122;SDS011;5101;49.038;8.710;2024-01-10T05:20:08;16.73;;;9.87;;
10122;SDS011;5101;49.038;8.710;2024-01-10T05:22:34;19.77;;;10.60;;
10122;SDS011;5101;49.038;8.710;2024-01-10T05:25:00;19.30;;;10.67;;
10122;SDS011;5101;49.038;8.710;2024-01-10T05:27:26;17.27;;;10.17;;
10122;SDS011;5101;49.038;8.710;2024-01-10T05:29:52;19.87;;;10.30;;
10122;SDS011;5101;49.038;8.710;2024-01-10T05:32:17;17.33;;;11.57;;
10122;SDS011;5101;49.038;8.710;2024-01-10T05:34:44;18.17;;;11.63;;
10122;SDS011;5101;49.038;8.710;2024-01-10T05:37:09;16.67;;;10.23;;
10122;SDS011;5101;49.038;8.710;2024-01-10T05:39:35;19.50;;;11.77;;
10122;SDS011;5101;49.038;8.710;2024-01-10T05:42:00;22.67;;;13.30;;
10122;SDS011;5101;49.038;8.710;2024-01-10T05:44:27;18.00;;;11.90;;
10122;SDS011;5101;49.038;8.710;2024-01-10T05:46:53;16.93;;;10.53;;
10122;SDS011;5101;49.038;8.710;2024-01-10T05:49:18;16.67;;;10.77;;
10122;SDS011;5101;49.038;8.710;2024-01-10T05:51:44;17.17;;;10.13;;
10122;SDS011;5101;49.038;8.710;2024-01-10T05:54:09;18.03;;;10.87;;
10122;SDS011;5101;49.038;8.710;2024-01-10T05:56:35;18.43;;;10.23;;
10122;SDS011;5101;49.038;8.710;2024-01-10T05:59:00;19.13;;;10.60;;
10122;SDS011;5101;49.038;8.710;2024-01-10T06:01:26;18.80;;;10.77;;
10122;SDS011;5101;49.038;8.710;2024-01-10T06:03:52;17.57;;;10.30;;
10122;SDS011;5101;49.038;8.710;2024-01-10T06:06:18;18.30;;;10.70;;
10122;SDS011;5101;49.038;8.710;2024-01-10T06:08:43;18.87;;;11.40;;
10122;SDS011;5101;49.038;8.710;2024-01-10T06:11:09;15.87;;;10.00;;
10122;SDS011;5101;49.038;8.710;2024-01-10T06:13:35;17.13;;;11.23;;
10122;SDS011;5101;49.038;8.710;2024-01-10T06:16:01;19.43;;;10.77;;
10122;SDS011;5101;49.038;8.710;2024-01-10T06:18:28;19.03;;;10.73;;
10122;SDS011;5101;49.038;8.710;2024-01-10T06:20:53;17.30;;;9.97;;
10122;SDS011;5101;49.038;8.710;2024-01-10T06:23:19;17.00;;;9.63;;
10122;SDS011;5101;49.038;8.710;2024-01-10T06:25:44;17.43;;;10.43;;
10122;SDS011;5101;49.038;8.710;2024-01-10T06:28:10;17.77;;;10.03;;
10122;SDS011;5101;49.038;8.710;2024-01-10T06:30:35;17.23;;;9.10;;
10122;SDS011;5101;49.038;8.710;2024-01-10T06:33:01;17.93;;;10.23;;
10122;SDS011;5101;49.038;8.710;2024-01-10T06:35:26;18.13;;;10.27;;
10122;SDS011;5101;49.038;8.710;2024-01-10T06:37:52;21.27;;;10.33;;
10122;SDS011;5101;49.038;8.710;2024-01-10T06:40:17;16.97;;;11.03;;
10122;SDS011;5101;49.038;8.710;2024-01-10T06:42:43;20.50;;;10.60;;
10122;SDS011;5101;49.038;8.710;2024-01-10T06:45:09;19.03;;;10.40;;
10122;SDS011;5101;49.038;8.710;2024-01-10T06:47:36;17.00;;;10.90;;
10122;SDS011;5101;49.038;8.710;2024-01-10T06:50:02;19.30;;;10.60;;
10122;SDS011;5101;49.038;8.710;2024-01-10T06:52:30;18.57;;;10.07;;
10122;SDS011;5101;49.038;8.710;2024-01-10T06:54:56;17.33;;;10.53;;
10122;SDS011;5101;49.038;8.710;2024-01-10T06:57:22;17.57;;;10.53;;
10122;SDS011;5101;49.038;8.710;2024-01-10T06:59:47;18.80;;;11.50;;
10122;SDS011;5101;49.038;8.710;2024-01-10T07:02:13;16.37;;;10.40;;
10122;SDS011;5101;49.038;8.710;2024-01-10T07:04:39;20.53;;;10.83;;
10122;SDS011;5101;49.038;8.710;2024-01-10T07:07:04;19.67;;;11.30;;
10122;SDS011;5101;49.038;8.710;2024-01-10T07:09:30;17.03;;;10.73;;
10122;SDS011;5101;49.038;8.710;2024-01-10T07:11:56;19.53;;;10.87;;
10122;SDS011;5101;49.038;8.710;2024-01-10T07:14:22;20.07;;;11.17;;
10122;SDS011;5101;49.038;8.710;2024-01-10T07:16:47;16.83;;;10.73;;
10122;SDS011;5101;49.038;8.710;2024-01-10T07:19:13;16.67;;;10.83;;
10122;SDS011;5101;49.038;8.710;2024-01-10T07:21:42;19.17;;;13.65;;
10122;SDS011;5101;49.038;8.710;2024-01-10T07:24:08;19.73;;;11.77;;
10122;SDS011;5101;49.038;8.710;2024-01-10T07:26:35;16.57;;;10.57;;
10122;SDS011;5101;49.038;8.710;2024-01-10T07:29:01;20.07;;;11.80;;
10122;SDS011;5101;49.038;8.710;2024-01-10T07:31:27;20.87;;;11.03;;
10122;SDS011;5101;49.038;8.710;2024-01-10T07:33:54;19.23;;;11.88;;
10122;SDS011;5101;49.038;8.710;2024-01-10T07:36:25;22.70;;;13.07;;
10122;SDS011;5101;49.038;8.710;2024-01-10T07:38:55;19.47;;;11.53;;
10122;SDS011;5101;49.038;8.710;2024-01-10T07:41:22;18.20;;;10.63;;
10122;SDS011;5101;49.038;8.710;2024-01-10T07:43:47;20.27;;;11.10;;
10122;SDS011;5101;49.038;8.710;2024-01-10T07:46:13;17.60;;;11.17;;
10122;SDS011;5101;49.038;8.710;2024-01-10T07:48:39;16.83;;;10.67;;
10122;SDS011;5101;49.038;8.710;2024-01-10T07:51:05;15.43;;;9.97;;
10122;SDS011;5101;49.038;8.710;2024-01-10T07:53:31;17.63;;;11.17;;
10122;SDS011;5101;49.038;8.710;2024-01-10T07:55:56;17.23;;;10.67;;
10122;SDS011;5101;49.038;8.710;2024-01-10T07:58:22;19.40;;;11.37;;
10122;SDS011;5101;49.038;8.710;2024-01-10T08:00:47;18.13;;;11.10;;
10122;SDS011;5101;49.038;8.710;2024-01-10T08:03:13;16.90;;;10.83;;
10122;SDS011;5101;49.038;8.710;2024-01-10T08:05:39;19.23;;;13.85;;
10122;SDS011;5101;49.038;8.710;2024-01-10T08:08:04;19.33;;;11.90;;
10122;SDS011;5101;49.038;8.710;2024-01-10T08:10:30;21.70;;;12.40;;
10122;SDS011;5101;49.038;8.710;2024-01-10T08:12:56;18.57;;;11.53;;
10122;SDS011;5101;49.038;8.710;2024-01-10T08:15:22;17.97;;;10.97;;
10122;SDS011;5101;49.038;8.710;2024-01-10T08:17:47;18.30;;;10.87;;
10122;SDS011;5101;49.038;8.710;2024-01-10T08:20:14;19.63;;;11.27;;
10122;SDS011;5101;49.038;8.710;2024-01-10T08:22:44;20.40;;;11.10;;
10122;SDS011;5101;49.038;8.710;2024-01-10T08:25:10;19.87;;;11.57;;
10122;SDS011;5101;49.038;8.710;2024-01-10T08:27:35;20.53;;;11.10;;
10122;SDS011;5101;49.038;8.710;2024-01-10T08:30:01;19.67;;;11.57;;
10122;SDS011;5101;49.038;8.710;2024-01-10T08:32:29;19.93;;;11.67;;
10122;SDS011;5101;49.038;8.710;2024-01-10T08:34:55;19.47;;;11.13;;
10122;SDS011;5101;49.038;8.710;2024-01-10T08:37:20;20.17;;;11.63;;
10122;SDS011;5101;49.038;8.710;2024-01-10T08:39:46;16.60;;;10.53;;
10122;SDS011;5101;49.038;8.710;2024-01-10T08:42:12;20.00;;;10.23;;
10122;SDS011;5101;49.038;8.710;2024-01-10T08:44:38;17.13;;;10.10;;
10122;SDS011;5101;49.038;8.710;2024-01-10T08:47:03;17.30;;;10.23;;
10122;SDS011;5101;49.038;8.710;2024-01-10T08:49:29;18.67;;;11.03;;
10122;SDS011;5101;49.038;8.710;2024-01-10T08:51:54;17.17;;;11.00;;
10122;SDS011;5101;49.038;8.710;2024-01-10T08:54:20;17.23;;;9.93;;
10122;SDS011;5101;49.038;8.710;2024-01-10T08:56:47;19.33;;;10.73;;
10122;SDS011;5101;49.038;8.710;2024-01-10T08:59:13;17.97;;;9.93;;
10122;SDS011;5101;49.038;8.710;2024-01-10T09:01:39;20.17;;;11.13;;
10122;SDS011;5101;49.038;8.710;2024-01-10T09:04:05;17.57;;;10.83;;
10122;SDS011;5101;49.038;8.710;2024-01-10T09:06:31;20.05;;;12.73;;
10122;SDS011;5101;49.038;8.710;2024-01-10T09:08:57;16.98;;;13.23;;
10122;SDS011;5101;49.038;8.710;2024-01-10T09:11:23;19.50;;;11.33;;
10122;SDS011;5101;49.038;8.710;2024-01-10T09:13:49;17.87;;;11.13;;
10122;SDS011;5101;49.038;8.710;2024-01-10T09:16:15;16.87;;;10.97;;
10122;SDS011;5101;49.038;8.710;2024-01-10T09:18:41;20.00;;;13.70;;
10122;SDS011;5101;49.038;8.710;2024-01-10T09:21:07;18.80;;;11.77;;
10122;SDS011;5101;49.038;8.710;2024-01-10T09:23:32;16.80;;;11.10;;
10122;SDS011;5101;49.038;8.710;2024-01-10T09:25:58;16.90;;;10.93;;
10122;SDS011;5101;49.038;8.710;2024-01-10T09:28:23;17.90;;;11.00;;
10122;SDS011;5101;49.038;8.710;2024-01-10T09:30:49;20.60;;;11.07;;
10122;SDS011;5101;49.038;8.710;2024-01-10T09:33:16;16.03;;;9.33;;
10122;SDS011;5101;49.038;8.710;2024-01-10T09:35:42;18.07;;;11.43;;
10122;SDS011;5101;49.038;8.710;2024-01-10T09:38:07;18.37;;;10.57;;
10122;SDS011;5101;49.038;8.710;2024-01-10T09:40:33;15.73;;;10.63;;
10122;SDS011;5101;49.038;8.710;2024-01-10T09:42:59;15.77;;;10.43;;
10122;SDS011;5101;49.038;8.710;2024-01-10T09:45:24;16.23;;;11.07;;
10122;SDS011;5101;49.038;8.710;2024-01-10T09:47:55;16.10;;;10.77;;
10122;SDS011;5101;49.038;8.710;2024-01-10T09:50:21;16.70;;;10.70;;
10122;SDS011;5101;49.038;8.710;2024-01-10T09:52:51;16.57;;;10.50;;
10122;SDS011;5101;49.038;8.710;2024-01-10T09:55:22;17.43;;;10.47;;
10122;SDS011;5101;49.038;8.710;2024-01-10T09:57:48;17.57;;;11.23;;
10122;SDS011;5101;49.038;8.710;2024-01-10T10:00:15;16.93;;;11.23;;
10122;SDS011;5101;49.038;8.710;2024-01-10T10:02:41;15.77;;;11.20;;
10122;SDS011;5101;49.038;8.710;2024-01-10T10:07:43;20.30;;;11.57;;
10122;SDS011;5101;49.038;8.710;2024-01-10T10:10:13;19.10;;;11.80;;
10122;SDS011;5101;49.038;8.710;2024-01-10T10:15:18;16.27;;;11.07;;
10122;SDS011;5101;49.038;8.710;2024-01-10T10:17:49;16.97;;;11.63;;
10122;SDS011;5101;49.038;8.710;2024-01-10T10:20:21;16.70;;;11.80;;
10122;SDS011;5101;49.038;8.710;2024-01-10T10:28:03;17.17;;;12.03;;
10122;SDS011;5101;49.038;8.710;2024-01-10T10:30:32;16.43;;;12.10;;
10122;SDS011;5101;49.038;8.710;2024-01-10T10:32:58;20.33;;;12.77;;
10122;SDS011;5101;49.038;8.710;2024-01-10T10:35:24;21.27;;;13.00;;
10122;SDS011;5101;49.038;8.710;2024-01-10T10:37:51;16.83;;;12.70;;
10122;SDS011;5101;49.038;8.710;2024-01-10T10:40:17;15.27;;;11.73;;
10122;SDS011;5101;49.038;8.710;2024-01-10T10:42:45;15.47;;;11.47;;
10122;SDS011;5101;49.038;8.710;2024-01-10T10:45:15;16.87;;;11.73;;
10122;SDS011;5101;49.038;8.710;2024-01-10T10:47:45;17.00;;;12.00;;
10122;SDS011;5101;49.038;8.710;2024-01-10T10:50:17;20.40;;;12.97;;
10122;SDS011;5101;49.038;8.710;2024-01-10T10:52:47;17.07;;;12.40;;
10122;SDS011;5101;49.038;8.710;2024-01-10T10:55:17;21.67;;;13.57;;
10122;SDS011;5101;49.038;8.710;2024-01-10T10:57:47;18.40;;;12.73;;
10122;SDS011;5101;49.038;8.710;2024-01-10T11:00:14;18.13;;;13.07;;
10122;SDS011;5101;49.038;8.710;2024-01-10T11:02:41;19.23;;;13.17;;
10122;SDS011;5101;49.038;8.710;2024-01-10T11:05:08;18.50;;;12.73;;
10122;SDS011;5101;49.038;8.710;2024-01-10T11:07:35;19.00;;;12.53;;
10122;SDS011;5101;49.038;8.710;2024-01-10T11:10:02;18.70;;;13.17;;
10122;SDS011;5101;49.038;8.710;2024-01-10T11:15:24;24.67;;;13.80;;
10122;SDS011;5101;49.038;8.710;2024-01-10T11:18:15;19.97;;;13.33;;
10122;SDS011;5101;49.038;8.710;2024-01-10T11:20:51;17.83;;;12.73;;
10122;SDS011;5101;49.038;8.710;2024-01-10T11:26:04;18.63;;;12.40;;
10122;SDS011;5101;49.038;8.710;2024-01-10T11:28:30;20.57;;;13.83;;
10122;SDS011;5101;49.038;8.710;2024-01-10T11:30:56;17.63;;;12.90;;
10122;SDS011;5101;49.038;8.710;2024-01-10T11:36:18;19.63;;;13.20;;
10122;SDS011;5101;49.038;8.710;2024-01-10T11:39:00;18.83;;;13.43;;
10122;SDS011;5101;49.038;8.710;2024-01-10T11:41:29;18.57;;;12.33;;
10122;SDS011;5101;49.038;8.710;2024-01-10T11:49:09;19.37;;;13.00;;
10122;SDS011;5101;49.038;8.710;2024-01-10T11:51:36;17.33;;;12.90;;
10122;SDS011;5101;49.038;8.710;2024-01-10T11:54:02;20.17;;;13.60;;
10122;SDS011;5101;49.038;8.710;2024-01-10T11:56:43;17.57;;;12.77;;
10122;SDS011;5101;49.038;8.710;2024-01-10T11:59:10;19.27;;;13.27;;
10122;SDS011;5101;49.038;8.710;2024-01-10T12:01:37;20.70;;;13.60;;
10122;SDS011;5101;49.038;8.710;2024-01-10T12:04:03;18.10;;;12.90;;
10122;SDS011;5101;49.038;8.710;2024-01-10T12:06:29;21.03;;;14.60;;
10122;SDS011;5101;49.038;8.710;2024-01-10T12:09:02;20.10;;;13.50;;
10122;SDS011;5101;49.038;8.710;2024-01-10T12:11:37;21.07;;;13.53;;
10122;SDS011;5101;49.038;8.710;2024-01-10T12:14:04;18.57;;;12.77;;
10122;SDS011;5101;49.038;8.710;2024-01-10T12:16:30;19.57;;;13.23;;
10122;SDS011;5101;49.038;8.710;2024-01-10T12:18:57;19.40;;;13.17;;
10122;SDS011;5101;49.038;8.710;2024-01-10T12:21:23;21.27;;;13.53;;
10122;SDS011;5101;49.038;8.710;2024-01-10T12:23:48;21.07;;;14.33;;
10122;SDS011;5101;49.038;8.710;2024-01-10T12:26:16;18.90;;;14.07;;
10122;SDS011;5101;49.038;8.710;2024-01-10T12:28:42;21.13;;;13.23;;
10122;SDS011;5101;49.038;8.710;2024-01-10T12:31:22;22.83;;;13.33;;
10122;SDS011;5101;49.038;8.710;2024-01-10T12:33:48;21.73;;;13.50;;
10122;SDS011;5101;49.038;8.710;2024-01-10T12:36:14;22.67;;;14.57;;
10122;SDS011;5101;49.038;8.710;2024-01-10T12:38:42;19.80;;;13.37;;
10122;SDS011;5101;49.038;8.710;2024-01-10T12:41:09;22.43;;;14.73;;
10122;SDS011;5101;49.038;8.710;2024-01-10T12:43:35;23.90;;;13.80;;
10122;SDS011;5101;49.038;8.710;2024-01-10T12:46:07;18.00;;;13.10;;
10122;SDS011;5101;49.038;8.710;2024-01-10T12:48:35;28.73;;;13.93;;
10122;SDS011;5101;49.038;8.710;2024-01-10T12:51:05;19.93;;;13.57;;
10122;SDS011;5101;49.038;8.710;2024-01-10T12:53:34;26.53;;;14.90;;
10122;SDS011;5101;49.038;8.710;2024-01-10T12:56:01;20.83;;;13.50;;
10122;SDS011;5101;49.038;8.710;2024-01-10T12:58:28;21.17;;;13.00;;
10122;SDS011;5101;49.038;8.710;2024-01-10T13:00:54;18.93;;;12.43;;
10122;SDS011;5101;49.038;8.710;2024-01-10T13:03:20;20.47;;;14.47;;
10122;SDS011;5101;49.038;8.710;2024-01-10T13:05:46;21.20;;;13.93;;
10122;SDS011;5101;49.038;8.710;2024-01-10T13:08:12;20.87;;;13.03;;
10122;SDS011;5101;49.038;8.710;2024-01-10T13:10:38;19.10;;;13.30;;
10122;SDS011;5101;49.038;8.710;2024-01-10T13:13:04;22.10;;;13.43;;
10122;SDS011;5101;49.038;8.710;2024-01-10T13:15:29;18.90;;;13.63;;
10122;SDS011;5101;49.038;8.710;2024-01-10T13:17:55;21.07;;;14.17;;
10122;SDS011;5101;49.038;8.710;2024-01-10T13:20:21;22.97;;;14.67;;
10122;SDS011;5101;49.038;8.710;2024-01-10T13:22:46;19.77;;;13.07;;
10122;SDS011;5101;49.038;8.710;2024-01-10T13:25:12;21.80;;;14.33;;
10122;SDS011;5101;49.038;8.710;2024-01-10T13:27:38;24.13;;;14.33;;
10122;SDS011;5101;49.038;8.710;2024-01-10T13:30:03;21.20;;;14.73;;
10122;SDS011;5101;49.038;8.710;2024-01-10T13:32:31;22.33;;;14.50;;
10122;SDS011;5101;49.038;8.710;2024-01-10T13:34:56;20.70;;;13.70;;
10122;SDS011;5101;49.038;8.710;2024-01-10T13:37:22;22.43;;;13.67;;
10122;SDS011;5101;49.038;8.710;2024-01-10T13:39:48;24.70;;;15.33;;
10122;SDS011;5101;49.038;8.710;2024-01-10T13:42:14;21.40;;;13.97;;
10122;SDS011;5101;49.038;8.710;2024-01-10T13:44:39;22.40;;;15.17;;
10122;SDS011;5101;49.038;8.710;2024-01-10T13:47:05;21.97;;;14.23;;
10122;SDS011;5101;49.038;8.710;2024-01-10T13:49:31;20.67;;;14.07;;
10122;SDS011;5101;49.038;8.710;2024-01-10T13:51:56;21.03;;;13.83;;
10122;SDS011;5101;49.038;8.710;2024-01-10T13:54:22;20.93;;;13.77;;
10122;SDS011;5101;49.038;8.710;2024-01-10T13:56:48;24.73;;;14.70;;
10122;SDS011;5101;49.038;8.710;2024-01-10T13:59:13;20.20;;;14.37;;
10122;SDS011;5101;49.038;8.710;2024-01-10T14:01:39;25.00;;;15.63;;
10122;SDS011;5101;49.038;8.710;2024-01-10T14:04:05;22.20;;;15.17;;
10122;SDS011;5101;49.038;8.710;2024-01-10T14:06:30;23.60;;;15.63;;
10122;SDS011;5101;49.038;8.710;2024-01-10T14:08:56;22.00;;;14.03;;
10122;SDS011;5101;49.038;8.710;2024-01-10T14:11:22;24.53;;;14.77;;
10122;SDS011;5101;49.038;8.710;2024-01-10T14:13:49;22.27;;;14.33;;
10122;SDS011;5101;49.038;8.710;2024-01-10T14:16:14;22.27;;;14.20;;
10122;SDS011;5101;49.038;8.710;2024-01-10T14:18:40;21.93;;;15.07;;
10122;SDS011;5101;49.038;8.710;2024-01-10T14:21:05;21.60;;;15.03;;
10122;SDS011;5101;49.038;8.710;2024-01-10T14:23:32;21.90;;;17.92;;
10122;SDS011;5101;49.038;8.710;2024-01-10T14:25:58;23.43;;;15.47;;
10122;SDS011;5101;49.038;8.710;2024-01-10T14:28:24;23.10;;;16.13;;
10122;SDS011;5101;49.038;8.710;2024-01-10T14:30:49;21.57;;;15.13;;
10122;SDS011;5101;49.038;8.710;2024-01-10T14:33:15;23.13;;;15.23;;
10122;SDS011;5101;49.038;8.710;2024-01-10T14:35:40;21.67;;;15.40;;
10122;SDS011;5101;49.038;8.710;2024-01-10T14:38:06;23.07;;;18.70;;
10122;SDS011;5101;49.038;8.710;2024-01-10T14:40:32;21.83;;;15.47;;
10122;SDS011;5101;49.038;8.710;2024-01-10T14:42:58;19.60;;;14.77;;
10122;SDS011;5101;49.038;8.710;2024-01-10T14:45:24;23.03;;;14.83;;
10122;SDS011;5101;49.038;8.710;2024-01-10T14:47:49;21.83;;;15.60;;
10122;SDS011;5101;49.038;8.710;2024-01-10T14:50:15;21.60;;;15.20;;
10122;SDS011;5101;49.038;8.710;2024-01-10T14:52:41;23.58;;;17.45;;
10122;SDS011;5101;49.038;8.710;2024-01-10T14:55:07;23.87;;;16.97;;
10122;SDS011;5101;49.038;8.710;2024-01-10T14:57:33;22.03;;;15.60;;
10122;SDS011;5101;49.038;8.710;2024-01-10T14:59:58;21.30;;;14.73;;